createdAt,value
2019-03-05T00:03:02.990Z,7.3
2019-03-05T00:08:02.744Z,7.2
2019-03-05T00:13:02.800Z,7.1
2019-03-05T00:18:02.799Z,6.9
2019-03-05T00:23:02.809Z,6.6
2019-03-05T00:28:02.801Z,6.5
2019-03-05T00:33:02.995Z,6.4
2019-03-05T00:38:03.033Z,6.3
2019-03-05T00:43:02.758Z,6.2
2019-03-05T00:48:03.002Z,6.2
2019-03-05T00:53:02.817Z,6.1
2019-03-05T00:58:02.801Z,6.1
2019-03-05T01:03:02.823Z,6.1
2019-03-05T01:08:02.820Z,6
2019-03-05T01:13:02.951Z,6
2019-03-05T01:18:02.999Z,6
2019-03-05T01:23:02.828Z,6
2019-03-05T01:28:02.825Z,6
2019-03-05T01:33:02.991Z,6
2019-03-05T01:38:03.042Z,6
2019-03-05T01:43:02.956Z,6
2019-03-05T01:48:02.993Z,5.9
2019-03-05T01:53:03.033Z,5.9
2019-03-05T01:58:02.855Z,5.9
2019-03-05T02:03:02.984Z,5.8
2019-03-05T02:08:03.033Z,5.8
2019-03-05T02:13:02.903Z,5.9
2019-03-05T02:18:02.857Z,6
2019-03-05T02:23:03.037Z,6.1
2019-03-05T02:28:03.067Z,6
2019-03-05T02:33:03.110Z,6
2019-03-05T02:38:05.580Z,6.1
2019-03-05T02:43:03.086Z,6.1
2019-03-05T02:48:02.873Z,6.1
2019-03-05T02:53:03.025Z,6.3
2019-03-05T02:58:02.885Z,6.3
2019-03-05T03:03:03.106Z,6.4
2019-03-05T03:08:03.064Z,6.4
2019-03-05T03:13:02.872Z,6.5
2019-03-05T03:18:02.963Z,6.6
2019-03-05T03:23:02.907Z,6.6
2019-03-05T03:28:03.071Z,6.5
2019-03-05T03:33:03.102Z,6.6
2019-03-05T03:38:03.136Z,6.5
2019-03-05T03:43:02.868Z,6.4
2019-03-05T03:48:02.909Z,6.3
2019-03-05T03:53:03.028Z,6.3
2019-03-05T03:58:03.069Z,6.2
2019-03-05T04:03:03.107Z,6.1
2019-03-05T04:08:03.143Z,6.1
2019-03-05T04:13:03.065Z,6
2019-03-05T04:18:03.109Z,6.1
2019-03-05T04:23:02.907Z,6.1
2019-03-05T04:28:03.066Z,6.2
2019-03-05T04:33:03.129Z,6.1
2019-03-05T04:38:02.920Z,6.2
2019-03-05T04:43:03.181Z,6.3
2019-03-05T04:48:02.938Z,6.3
2019-03-05T04:53:03.040Z,6.4
2019-03-05T04:58:03.019Z,6.4
2019-03-05T05:03:03.058Z,6.5
2019-03-05T05:08:03.141Z,6.5
2019-03-05T05:13:02.951Z,6.5
2019-03-05T05:18:03.102Z,6.5
2019-03-05T05:23:02.961Z,6.5
2019-03-05T05:28:02.952Z,6.5
2019-03-05T05:33:02.949Z,6.5
2019-03-05T05:38:02.946Z,6.5
2019-03-05T05:43:03.187Z,6.5
2019-03-05T05:48:03.100Z,6.4
2019-03-05T05:53:02.975Z,6.4
2019-03-05T05:58:03.084Z,6.5
2019-03-05T06:03:03.179Z,6.5
2019-03-05T06:08:03.091Z,6.5
2019-03-05T06:13:03.219Z,6.5
2019-03-05T06:18:02.985Z,6.5
2019-03-05T06:23:03.139Z,6.5
2019-03-05T06:28:03.135Z,6.5
2019-03-05T06:33:03.007Z,6.6
2019-03-05T06:38:02.986Z,6.6
2019-03-05T06:43:02.996Z,6.6
2019-03-05T06:48:02.987Z,6.6
2019-03-05T06:53:03.246Z,6.6
2019-03-05T06:58:02.979Z,6.7
2019-03-05T07:03:03.024Z,6.7
2019-03-05T07:08:03.138Z,6.7
2019-03-05T07:13:03.030Z,6.8
2019-03-05T07:18:03.226Z,6.9
2019-03-05T07:23:03.192Z,7
2019-03-05T07:28:02.974Z,7.1
2019-03-05T07:33:03.219Z,7.2
2019-03-05T07:38:03.254Z,7.3
2019-03-05T07:43:03.031Z,7.5
2019-03-05T07:48:03.214Z,7.6
2019-03-05T07:53:03.251Z,7.8
2019-03-05T07:58:03.124Z,7.9
2019-03-05T08:03:03.226Z,7.9
2019-03-05T08:08:03.240Z,7.9
2019-03-05T08:13:03.296Z,7.9
2019-03-05T08:18:03.164Z,7.9
2019-03-05T08:23:03.274Z,8
2019-03-05T08:28:03.285Z,8
2019-03-05T08:33:03.160Z,8.1
2019-03-05T08:38:03.274Z,8.1
2019-03-05T08:43:03.306Z,8.2
2019-03-05T08:48:03.066Z,8.3
2019-03-05T08:53:03.068Z,8.4
2019-03-05T08:58:03.291Z,8.5
2019-03-05T09:03:03.219Z,8.6
2019-03-05T09:08:03.076Z,8.6
2019-03-05T09:13:03.075Z,8.6
2019-03-05T09:18:03.329Z,8.3
2019-03-05T09:23:03.090Z,8.2
2019-03-05T09:28:03.287Z,8.2
2019-03-05T09:33:03.076Z,8.3
2019-03-05T09:38:03.106Z,8.5
2019-03-05T09:43:03.306Z,8.5
2019-03-05T09:48:03.223Z,8.6
2019-03-05T09:53:03.361Z,8.7
2019-03-05T09:58:07.846Z,8.9
2019-03-05T10:03:03.099Z,9
2019-03-05T10:08:03.102Z,9.2
2019-03-05T10:13:04.059Z,9.4
2019-03-05T10:18:12.040Z,9.4
2019-03-05T10:23:03.240Z,9.6
2019-03-05T10:28:03.102Z,9.6
2019-03-05T10:33:03.106Z,9.6
2019-03-05T10:38:03.368Z,9.9
2019-03-05T10:43:08.269Z,10.4
2019-03-05T10:48:03.311Z,10.7
2019-03-05T10:53:03.262Z,10.4
2019-03-05T10:58:03.275Z,10.5
2019-03-05T11:03:03.318Z,10.9
2019-03-05T11:08:03.269Z,10.9
2019-03-05T11:13:03.141Z,11.1
2019-03-05T11:18:03.313Z,11.1
2019-03-05T11:23:03.128Z,11.2
2019-03-05T11:28:03.281Z,11
2019-03-05T11:33:03.255Z,11
2019-03-05T11:38:03.376Z,11.1
2019-03-05T11:43:03.088Z,11
2019-03-05T11:48:03.311Z,10.8
2019-03-05T11:53:03.139Z,10.8
2019-03-05T11:58:03.282Z,10.8
2019-03-05T12:03:03.318Z,10.8
2019-03-05T12:08:03.370Z,10.7
2019-03-05T12:13:03.173Z,10.5
2019-03-05T12:18:03.163Z,10.7
2019-03-05T12:23:06.551Z,11
2019-03-05T12:28:10.042Z,11.3
2019-03-05T12:33:03.318Z,11.1
2019-03-05T12:38:03.374Z,11.1
2019-03-05T12:43:03.176Z,11
2019-03-05T12:48:03.318Z,10.9
2019-03-05T12:53:03.178Z,10.6
2019-03-05T12:58:03.379Z,10.3
2019-03-05T13:03:03.183Z,10.5
2019-03-05T13:08:03.353Z,10.8
2019-03-05T13:13:03.398Z,10.9
2019-03-05T13:18:03.436Z,11.1
2019-03-05T13:23:08.438Z,11
2019-03-05T13:28:04.183Z,10.8
2019-03-05T13:33:03.424Z,10.8
2019-03-05T13:38:07.336Z,10.9
2019-03-05T13:43:03.221Z,11
2019-03-05T13:48:03.149Z,11.1
2019-03-05T13:53:14.209Z,11.2
2019-03-05T13:58:03.205Z,11.2
2019-03-05T14:03:03.221Z,11.2
2019-03-05T14:08:03.244Z,11.3
2019-03-05T14:13:03.398Z,11.3
2019-03-05T14:18:03.223Z,11.3
2019-03-05T14:23:03.357Z,11.2
2019-03-05T14:28:03.407Z,11.2
2019-03-05T14:33:03.246Z,11.2
2019-03-05T14:38:03.508Z,11.2
2019-03-05T14:43:03.242Z,11.1
2019-03-05T14:48:04.439Z,11
2019-03-05T14:53:03.397Z,10.9
2019-03-05T14:58:03.432Z,10.9
2019-03-05T15:03:03.417Z,10.8
2019-03-05T15:08:03.461Z,10.7
2019-03-05T15:13:14.894Z,10.7
2019-03-05T15:18:03.515Z,10.6
2019-03-05T15:23:03.483Z,10.6
2019-03-05T15:28:03.416Z,10.5
2019-03-05T15:33:03.442Z,10.5
2019-03-05T15:38:03.309Z,10.4
2019-03-05T15:43:03.296Z,10.4
2019-03-05T15:48:03.381Z,10.3
2019-03-05T15:53:03.317Z,10.2
2019-03-05T15:58:03.259Z,10.2
2019-03-05T16:03:03.346Z,10.1
2019-03-05T16:08:03.449Z,10
2019-03-05T16:13:03.820Z,9.9
2019-03-05T16:18:05.120Z,9.8
2019-03-05T16:23:03.317Z,9.8
2019-03-05T16:28:06.271Z,9.7
2019-03-05T16:33:03.287Z,9.6
2019-03-05T16:38:03.282Z,9.5
2019-03-05T16:43:03.292Z,9.5
2019-03-05T16:48:03.330Z,9.4
2019-03-05T16:53:03.299Z,9.3
2019-03-05T16:58:03.324Z,9.3
2019-03-05T17:03:03.448Z,9.3
2019-03-05T17:08:03.320Z,9.3
2019-03-05T17:13:03.336Z,9.4
2019-03-05T17:18:03.319Z,9.4
2019-03-05T17:23:03.330Z,9.4
2019-03-05T17:28:03.318Z,9.3
2019-03-05T17:33:03.320Z,9.2
2019-03-05T17:38:03.324Z,9.1
2019-03-05T17:43:03.329Z,9.1
2019-03-05T17:48:03.358Z,9
2019-03-05T17:53:03.333Z,9
2019-03-05T17:58:03.347Z,8.9
2019-03-05T18:03:03.368Z,8.9
2019-03-05T18:08:03.370Z,8.8
2019-03-05T18:13:03.345Z,8.8
2019-03-05T18:18:03.746Z,8.8
2019-03-05T18:23:03.530Z,8.7
2019-03-05T18:28:03.384Z,8.7
2019-03-05T18:33:03.861Z,8.7
2019-03-05T18:38:03.813Z,8.6
2019-03-05T18:43:03.770Z,8.5
2019-03-05T18:48:03.786Z,8.4
2019-03-05T18:53:03.346Z,8.3
2019-03-05T18:58:03.372Z,8
2019-03-05T19:03:03.510Z,7.9
2019-03-05T19:08:03.455Z,7.7
2019-03-05T19:13:03.661Z,7.6
2019-03-05T19:18:03.535Z,7.4
2019-03-05T19:23:03.610Z,7.4
2019-03-05T19:28:03.448Z,7.3
2019-03-05T19:33:03.871Z,7.2
2019-03-05T19:38:03.421Z,7
2019-03-05T19:43:03.939Z,6.9
2019-03-05T19:48:03.969Z,6.8
2019-03-05T19:53:03.455Z,6.8
2019-03-05T19:58:03.641Z,6.7
2019-03-05T20:03:03.389Z,6.6
2019-03-05T20:08:03.545Z,6.5
2019-03-05T20:13:04.275Z,6.3
2019-03-05T20:18:04.286Z,6.2
2019-03-05T20:23:03.809Z,6.1
2019-03-05T20:28:03.946Z,6
2019-03-05T20:33:03.877Z,6
2019-03-05T20:38:03.827Z,5.9
2019-03-05T20:43:03.689Z,5.8
2019-03-05T20:48:03.556Z,5.8
2019-03-05T20:53:04.636Z,5.7
2019-03-05T20:58:03.605Z,5.6
2019-03-05T21:03:03.979Z,5.6
2019-03-05T21:08:04.126Z,5.5
2019-03-05T21:13:03.862Z,5.5
2019-03-05T21:18:04.086Z,5.4
2019-03-05T21:23:03.505Z,5.3
2019-03-05T21:28:04.071Z,5.3
2019-03-05T21:33:04.002Z,5.2
2019-03-05T21:38:03.711Z,5.2
2019-03-05T21:43:03.501Z,5.2
2019-03-05T21:48:03.675Z,5.2
2019-03-05T21:53:03.473Z,5.2
2019-03-05T21:58:03.481Z,5.2
2019-03-05T22:03:03.609Z,5.2
2019-03-05T22:08:03.473Z,5.3
2019-03-05T22:13:03.471Z,5.3
2019-03-05T22:18:03.488Z,5.3
2019-03-05T22:23:03.444Z,5.3
2019-03-05T22:28:03.464Z,5.3
2019-03-05T22:33:03.580Z,5.4
2019-03-05T22:38:03.475Z,5.4
2019-03-05T22:43:03.623Z,5.4
2019-03-05T22:48:03.495Z,5.4
2019-03-05T22:53:03.591Z,5.5
2019-03-05T22:58:03.478Z,5.5
2019-03-05T23:03:03.662Z,5.5
2019-03-05T23:08:03.712Z,5.5
2019-03-05T23:13:03.609Z,5.5
2019-03-05T23:18:03.501Z,5.5
2019-03-05T23:23:03.707Z,5.5
2019-03-05T23:28:03.493Z,5.6
2019-03-05T23:33:03.498Z,5.6
2019-03-05T23:38:03.515Z,5.6
2019-03-05T23:43:03.734Z,5.6
2019-03-05T23:48:03.668Z,5.5
2019-03-05T23:53:03.642Z,5.5
2019-03-05T23:58:03.636Z,5.5
